Time;durP1;ratioP1;P1;durP2;ratioP2;P2;SDS_P1;SDS_P2;PMS_P1;PMS_P2;Temp;Humidity;BMP_temperature;BMP_pressure;BME280_temperature;BME280_humidity;BME280_pressure;Samples;Min_cycle;Max_cycle;Signal;HPM_P1;HPM_P2
2023/12/22 00:00:58;;;;;;;1.00;1.00;;;;;;;7.54;100.00;97390.28;4142980;28;20240;-52
2023/12/22 00:03:00;;;;;;;0.90;0.90;;;;;;;7.60;100.00;97393.88;4135197;28;20210;-52
2023/12/22 00:05:02;;;;;;;0.77;0.77;;;;;;;7.56;100.00;97371.78;4131944;28;20212;-52
2023/12/22 00:07:04;;;;;;;4.90;1.70;;;;;;;7.58;100.00;97363.38;4135150;28;20633;-52
2023/12/22 00:09:06;;;;;;;0.57;0.57;;;;;;;7.59;100.00;97360.41;4135851;28;20231;-51
2023/12/22 00:11:08;;;;;;;0.80;0.80;;;;;;;7.60;100.00;97377.53;4143016;28;20209;-53
2023/12/22 00:13:09;;;;;;;0.73;0.73;;;;;;;7.62;100.00;97391.72;4135628;28;20212;-50
2023/12/22 00:15:11;;;;;;;0.90;0.90;;;;;;;7.57;100.00;97391.69;4135761;28;20214;-51
2023/12/22 00:17:13;;;;;;;0.90;0.90;;;;;;;7.65;100.00;97407.53;4136637;28;20206;-54
2023/12/22 00:19:15;;;;;;;1.33;1.30;;;;;;;7.55;100.00;97402.00;4136267;28;20237;-53
2023/12/22 00:21:17;;;;;;;1.70;1.70;;;;;;;7.63;100.00;97387.91;4137463;28;20247;-51
2023/12/22 00:23:18;;;;;;;1.20;1.20;;;;;;;7.63;100.00;97393.38;4134939;28;20619;-53
2023/12/22 00:25:20;;;;;;;1.08;1.08;;;;;;;7.62;100.00;97391.72;4134473;28;20632;-51
2023/12/22 00:27:22;;;;;;;1.00;1.00;;;;;;;7.58;100.00;97390.59;4141815;28;20284;-51
2023/12/22 00:29:23;;;;;;;1.50;1.40;;;;;;;7.55;100.00;97380.25;4136005;28;20202;-50
2023/12/22 00:31:25;;;;;;;1.30;1.20;;;;;;;7.57;100.00;97372.63;4141249;28;20205;-51
2023/12/22 00:33:27;;;;;;;0.85;0.85;;;;;;;7.55;100.00;97369.34;4134849;28;20251;-51
2023/12/22 00:35:29;;;;;;;1.60;1.27;;;;;;;7.60;100.00;97377.53;4135996;28;20245;-53
2023/12/22 00:37:31;;;;;;;4.10;1.45;;;;;;;7.59;100.00;97375.91;4133460;28;20775;-53
2023/12/22 00:39:32;;;;;;;2.53;1.00;;;;;;;7.56;100.00;97362.81;4137487;28;20394;-52
2023/12/22 00:41:34;;;;;;;1.08;0.98;;;;;;;7.63;100.00;97360.69;4122478;28;20202;-50
2023/12/22 00:43:36;;;;;;;1.58;1.48;;;;;;;7.61;100.00;97368.31;4139433;28;20697;-52
2023/12/22 00:45:38;;;;;;;3.85;1.20;;;;;;;7.64;100.00;97373.22;4135309;28;20253;-51
2023/12/22 00:47:39;;;;;;;1.98;1.88;;;;;;;7.63;100.00;97382.47;4133244;28;20678;-52
2023/12/22 00:49:41;;;;;;;1.50;1.45;;;;;;;7.62;100.00;97391.72;4127652;28;20217;-53
2023/12/22 00:51:43;;;;;;;0.80;0.80;;;;;;;7.63;100.00;97383.28;4131869;28;20243;-51
2023/12/22 00:53:45;;;;;;;1.10;0.98;;;;;;;7.61;100.00;97395.53;4137916;28;20205;-50
2023/12/22 00:55:47;;;;;;;5.15;1.08;;;;;;;7.59;100.00;97381.34;4142607;28;20220;-51
2023/12/22 00:57:48;;;;;;;1.15;1.15;;;;;;;7.57;100.00;97391.69;4136015;28;20606;-50
2023/12/22 00:59:51;;;;;;;2.22;0.70;;;;;;;7.58;100.00;97385.97;4140541;28;20437;-52
2023/12/22 01:01:53;;;;;;;1.90;1.00;;;;;;;7.57;100.00;97394.41;4134075;28;20204;-51
2023/12/22 01:03:55;;;;;;;0.90;0.90;;;;;;;7.51;100.00;97395.44;4135582;28;20213;-50
2023/12/22 01:05:57;;;;;;;1.13;1.08;;;;;;;7.52;100.00;97392.47;4136199;28;20209;-52
2023/12/22 01:07:59;;;;;;;0.77;0.77;;;;;;;7.52;100.00;97397.06;4138127;28;20304;-50
2023/12/22 01:10:01;;;;;;;1.30;1.15;;;;;;;7.54;100.00;97384.00;4143142;28;20252;-50
2023/12/22 01:12:04;;;;;;;1.05;0.95;;;;;;;7.50;100.00;97382.91;4126614;28;20210;-50
2023/12/22 01:14:06;;;;;;;1.27;0.95;;;;;;;7.58;100.00;97387.88;4142813;28;20292;-54
2023/12/22 01:16:08;;;;;;;0.85;0.85;;;;;;;7.54;100.00;97394.91;4133235;28;20209;-54
2023/12/22 01:18:11;;;;;;;0.95;0.95;;;;;;;7.49;100.00;97408.47;4134442;28;20299;-51
2023/12/22 01:20:13;;;;;;;1.10;1.10;;;;;;;7.48;100.00;97401.41;4132468;28;20214;-50
2023/12/22 01:22:15;;;;;;;4.13;2.03;;;;;;;7.42;100.00;97414.13;4131630;28;20206;-51
2023/12/22 01:24:17;;;;;;;0.60;0.60;;;;;;;7.45;100.00;97413.63;4136126;28;20212;-52
2023/12/22 01:26:18;;;;;;;4.57;1.15;;;;;;;7.51;100.00;97422.66;4143235;28;20213;-49
2023/12/22 01:28:20;;;;;;;1.67;1.00;;;;;;;7.55;100.00;97434.66;4143534;28;20241;-50
2023/12/22 01:30:22;;;;;;;3.53;1.50;;;;;;;7.52;100.00;97430.56;4139566;28;20217;-51
2023/12/22 01:32:24;;;;;;;1.35;1.25;;;;;;;7.51;100.00;97423.47;4137272;28;20244;-50
2023/12/22 01:34:26;;;;;;;1.02;0.95;;;;;;;7.52;100.00;97432.44;4122630;28;20206;-50
2023/12/22 01:36:27;;;;;;;1.98;1.02;;;;;;;7.51;100.00;97428.09;4141145;28;20309;-49
2023/12/22 01:38:29;;;;;;;0.68;0.68;;;;;;;7.47;100.00;97426.94;4139332;28;20237;-51
2023/12/22 01:40:31;;;;;;;1.38;1.27;;;;;;;7.54;100.00;97422.94;4138788;28;20213;-49
2023/12/22 01:42:33;;;;;;;1.10;1.08;;;;;;;7.49;100.00;97416.66;4139867;28;20292;-49
2023/12/22 01:44:34;;;;;;;1.30;1.27;;;;;;;7.51;100.00;97417.19;4139602;28;20212;-49
2023/12/22 01:46:36;;;;;;;4.72;1.20;;;;;;;7.49;100.00;97419.38;4144317;28;20251;-51
2023/12/22 01:48:38;;;;;;;1.00;1.00;;;;;;;7.47;100.00;97411.44;4143954;28;20225;-50
2023/12/22 01:50:41;;;;;;;2.05;1.25;;;;;;;7.53;100.00;97398.69;4137117;28;20298;-50
2023/12/22 01:52:43;;;;;;;1.45;1.45;;;;;;;7.47;100.00;97399.72;4144483;28;20206;-51
2023/12/22 01:54:45;;;;;;;1.17;1.17;;;;;;;7.46;100.00;97398.09;4144496;28;20551;-50
2023/12/22 01:56:47;;;;;;;2.03;1.35;;;;;;;7.44;100.00;97394.81;4136543;28;20206;-51
2023/12/22 01:58:51;;;;;;;1.00;1.00;;;;;;;7.49;100.00;97403.84;4135736;28;20233;-50
2023/12/22 02:00:53;;;;;;;9.55;1.83;;;;;;;7.52;100.00;97421.56;4136668;28;20691;-51
2023/12/22 02:02:55;;;;;;;0.88;0.88;;;;;;;7.56;100.00;97414.53;4133177;28;20209;-50
2023/12/22 02:04:58;;;;;;;5.40;1.27;;;;;;;7.59;100.00;97419.44;4137866;28;20264;-50
2023/12/22 02:07:01;;;;;;;1.85;1.63;;;;;;;7.49;100.00;97430.25;4136422;28;20209;-51
2023/12/22 02:09:04;;;;;;;3.85;1.10;;;;;;;7.58;100.00;97428.69;4138741;28;20221;-50
2023/12/22 02:11:05;;;;;;;6.78;1.17;;;;;;;7.57;100.00;97437.94;4136266;28;20225;-49
2023/12/22 02:13:09;;;;;;;2.40;0.77;;;;;;;7.53;100.00;97420.47;4136032;28;20220;-50
2023/12/22 02:15:11;;;;;;;0.73;0.73;;;;;;;7.47;100.00;97421.50;4151854;28;20217;-49
2023/12/22 02:17:29;;;;;;;1.33;0.90;;;;;;;7.43;100.00;97425.84;4149808;28;20222;-50
2023/12/22 02:19:34;;;;;;;0.70;0.70;;;;;;;7.40;100.00;97426.34;4136915;28;20634;-48
2023/12/22 02:21:38;;;;;;;1.05;0.82;;;;;;;7.34;100.00;97427.34;4144473;28;20213;-49
2023/12/22 02:23:39;;;;;;;1.48;1.13;;;;;;;7.30;100.00;97420.81;4145321;28;20612;-49
2023/12/22 02:25:41;;;;;;;7.53;1.15;;;;;;;7.40;100.00;97437.22;4136862;28;20205;-48
2023/12/22 02:28:11;;;;;;;3.35;1.27;;;;;;;7.39;100.00;97430.13;4138077;28;20263;-50
2023/12/22 02:30:24;;;;;;;6.03;1.27;;;;;;;7.44;100.00;97436.47;4145829;28;20351;-49
2023/12/22 02:32:31;;;;;;;1.48;1.38;;;;;;;7.43;100.00;97442.16;4137041;28;20265;-51
2023/12/22 02:34:35;;;;;;;0.88;0.88;;;;;;;7.36;100.00;97442.34;4142511;28;20698;-49
2023/12/22 02:36:38;;;;;;;1.15;1.10;;;;;;;7.44;100.00;97454.69;4138380;28;20205;-48
2023/12/22 02:38:40;;;;;;;0.88;0.88;;;;;;;7.42;100.00;97448.69;4144562;28;20229;-49
2023/12/22 02:40:43;;;;;;;0.95;0.95;;;;;;;7.51;100.00;97433.53;4137423;28;20288;-49
2023/12/22 02:42:45;;;;;;;2.25;0.80;;;;;;;7.53;100.00;97450.41;4135459;28;20642;-51
2023/12/22 02:44:47;;;;;;;1.17;1.05;;;;;;;7.56;100.00;97448.00;4136199;28;20210;-50
2023/12/22 02:46:49;;;;;;;1.42;1.35;;;;;;;7.57;100.00;97437.94;4128339;28;20206;-49
2023/12/22 02:48:50;;;;;;;5.65;1.15;;;;;;;7.57;100.00;97427.06;4136750;28;20221;-49
2023/12/22 02:50:52;;;;;;;1.10;1.02;;;;;;;7.57;100.00;97421.63;4137103;28;20218;-50
2023/12/22 02:52:54;;;;;;;1.73;1.63;;;;;;;7.62;100.00;97433.38;4137273;28;20225;-52
2023/12/22 02:54:56;;;;;;;4.78;2.35;;;;;;;7.62;100.00;97441.53;4137694;28;20205;-51
2023/12/22 02:56:58;;;;;;;1.90;1.80;;;;;;;7.62;100.00;97462.50;4127180;28;20240;-51
2023/12/22 02:59:00;;;;;;;0.85;0.85;;;;;;;7.55;100.00;97446.38;4134706;28;20661;-50
2023/12/22 03:01:02;;;;;;;0.77;0.77;;;;;;;7.48;100.00;97462.06;4135635;28;20217;-49
2023/12/22 03:03:04;;;;;;;3.58;1.20;;;;;;;7.35;100.00;97450.78;4137295;28;20272;-51
2023/12/22 03:05:06;;;;;;;1.42;0.85;;;;;;;7.16;100.00;97435.88;4134528;28;20215;-50
2023/12/22 03:07:08;;;;;;;0.60;0.60;;;;;;;7.04;100.00;97443.34;4121158;28;20207;-50
2023/12/22 03:09:10;;;;;;;2.75;0.93;;;;;;;6.97;100.00;97448.16;4136852;28;20222;-51
2023/12/22 03:11:11;;;;;;;1.27;0.80;;;;;;;6.97;100.00;97431.84;4138475;28;20268;-50
2023/12/22 03:13:13;;;;;;;1.85;1.15;;;;;;;6.85;100.00;97444.75;4136999;28;20289;-50
2023/12/22 03:15:15;;;;;;;0.93;0.93;;;;;;;6.82;100.00;97428.94;4135393;28;20210;-49
2023/12/22 03:17:17;;;;;;;1.40;1.30;;;;;;;6.72;100.00;97436.97;4135577;28;20663;-50
2023/12/22 03:19:18;;;;;;;4.78;1.13;;;;;;;6.69;100.00;97429.31;4140259;28;20234;-49
2023/12/22 03:21:20;;;;;;;2.67;1.00;;;;;;;6.66;100.00;97419.78;4143141;28;20210;-51
2023/12/22 03:23:22;;;;;;;0.75;0.75;;;;;;;6.60;100.00;97415.34;4143850;28;20221;-49
2023/12/22 03:25:24;;;;;;;0.80;0.80;;;;;;;6.60;100.00;97414.50;4135271;28;20575;-49
2023/12/22 03:27:26;;;;;;;0.80;0.80;;;;;;;6.51;100.00;97421.47;4128406;28;20253;-49
2023/12/22 03:29:28;;;;;;;1.95;1.73;;;;;;;6.51;100.00;97432.31;4124668;28;20213;-50
2023/12/22 03:31:30;;;;;;;1.67;1.15;;;;;;;6.50;100.00;97414.38;4136090;28;20216;-49
2023/12/22 03:33:32;;;;;;;1.42;0.77;;;;;;;6.53;100.00;97424.75;4134494;28;20209;-48
2023/12/22 03:35:34;;;;;;;1.00;1.00;;;;;;;6.55;100.00;97439.72;4143757;28;20624;-50
2023/12/22 03:37:35;;;;;;;13.82;1.50;;;;;;;6.56;100.00;97452.22;4137239;28;20280;-50
2023/12/22 03:39:37;;;;;;;1.83;1.75;;;;;;;6.60;100.00;97469.69;4136607;28;20229;-50
2023/12/22 03:41:42;;;;;;;1.48;1.23;;;;;;;6.61;100.00;97463.19;4136935;28;20698;-50
2023/12/22 03:43:44;;;;;;;2.30;2.10;;;;;;;6.66;100.00;97446.13;4134198;28;20268;-50
2023/12/22 03:45:45;;;;;;;1.02;1.02;;;;;;;6.63;100.00;97452.06;4135987;28;20214;-52
2023/12/22 03:47:47;;;;;;;0.95;0.90;;;;;;;6.64;100.00;97470.84;4136555;28;20284;-49
2023/12/22 03:49:49;;;;;;;1.15;1.15;;;;;;;6.67;100.00;97474.94;4135859;28;20205;-50
2023/12/22 03:51:51;;;;;;;0.80;0.80;;;;;;;6.75;100.00;97486.19;4134907;28;20206;-48
2023/12/22 03:53:53;;;;;;;1.27;0.90;;;;;;;6.73;100.00;97491.06;4137571;28;20209;-49
2023/12/22 03:55:55;;;;;;;1.33;1.30;;;;;;;6.79;100.00;97492.78;4135815;28;20268;-50
2023/12/22 03:57:57;;;;;;;0.80;0.80;;;;;;;6.81;100.00;97500.69;4136384;28;20226;-50
2023/12/22 03:59:59;;;;;;;1.50;1.40;;;;;;;6.85;100.00;97501.84;4134769;28;20238;-50
2023/12/22 04:02:01;;;;;;;1.27;1.17;;;;;;;6.85;100.00;97493.69;4133885;28;20231;-51
2023/12/22 04:04:03;;;;;;;1.42;1.30;;;;;;;6.86;100.00;97490.72;4136458;28;20205;-51
2023/12/22 04:06:05;;;;;;;1.08;1.08;;;;;;;6.80;100.00;97490.88;4135159;28;20206;-52
2023/12/22 04:08:07;;;;;;;1.50;1.40;;;;;;;6.85;100.00;97489.06;4134672;28;20706;-51
2023/12/22 04:10:09;;;;;;;1.35;1.05;;;;;;;6.82;100.00;97495.00;4134430;28;20210;-51
2023/12/22 04:12:11;;;;;;;0.75;0.75;;;;;;;6.89;100.00;97489.41;4134426;28;20603;-50
2023/12/22 04:14:12;;;;;;;1.40;1.30;;;;;;;6.92;100.00;97483.44;4134620;28;21073;-50
2023/12/22 04:16:14;;;;;;;1.27;1.20;;;;;;;6.89;100.00;97483.97;4136776;28;20223;-50
2023/12/22 04:18:16;;;;;;;1.17;0.70;;;;;;;6.90;100.00;97477.44;4136592;28;20233;-50
2023/12/22 04:20:18;;;;;;;1.00;1.00;;;;;;;6.94;100.00;97471.25;4137526;28;20225;-50
2023/12/22 04:22:20;;;;;;;0.88;0.80;;;;;;;6.89;100.00;97475.81;4135282;28;20771;-49
2023/12/22 04:24:22;;;;;;;1.88;1.10;;;;;;;6.91;100.00;97460.03;4141725;28;20217;-50
2023/12/22 04:26:24;;;;;;;0.82;0.80;;;;;;;6.91;100.00;97466.31;4135308;28;20857;-51
2023/12/22 04:28:25;;;;;;;1.65;0.90;;;;;;;6.93;100.00;97457.88;4137121;28;20234;-49
2023/12/22 04:30:27;;;;;;;1.10;1.10;;;;;;;6.93;100.00;97466.03;4136195;28;20672;-49
2023/12/22 04:32:33;;;;;;;0.95;0.95;;;;;;;6.94;100.00;97470.41;4134257;28;20298;-52
2023/12/22 04:34:34;;;;;;;1.20;1.10;;;;;;;6.93;100.00;97457.88;4136313;28;20678;-51
2023/12/22 04:36:37;;;;;;;6.95;1.15;;;;;;;6.91;100.00;97457.31;4132812;28;20272;-50
2023/12/22 04:38:40;;;;;;;0.93;0.90;;;;;;;6.96;100.00;97457.41;4136055;28;20337;-51
2023/12/22 04:40:42;;;;;;;1.35;1.35;;;;;;;7.00;100.00;97463.94;4134606;28;20229;-51
2023/12/22 04:42:44;;;;;;;1.20;1.10;;;;;;;6.99;100.00;97440.56;4134257;28;20244;-50
2023/12/22 04:44:46;;;;;;;1.27;1.27;;;;;;;7.05;100.00;97455.88;4137482;28;20205;-50
2023/12/22 04:46:47;;;;;;;1.55;1.45;;;;;;;7.04;100.00;97465.09;4122587;28;20273;-50
2023/12/22 04:48:49;;;;;;;17.55;1.25;;;;;;;7.16;100.00;97463.09;4142090;28;20312;-51
2023/12/22 04:50:51;;;;;;;0.80;0.80;;;;;;;7.19;100.00;97468.84;4137090;28;20309;-50
2023/12/22 04:52:53;;;;;;;2.78;1.63;;;;;;;7.21;100.00;97466.69;4136083;28;20205;-50
2023/12/22 04:54:56;;;;;;;7.38;1.25;;;;;;;7.21;100.00;97476.75;4142165;28;20327;-52
2023/12/22 04:56:57;;;;;;;0.98;0.98;;;;;;;7.21;100.00;97487.63;4120682;28;20211;-49
2023/12/22 04:58:59;;;;;;;1.33;1.33;;;;;;;7.20;100.00;97496.84;4135198;28;20229;-49
2023/12/22 05:01:01;;;;;;;1.40;1.30;;;;;;;7.18;100.00;97494.41;4134152;28;20297;-49
2023/12/22 05:03:03;;;;;;;1.83;1.67;;;;;;;7.19;100.00;97506.09;4136817;28;20220;-49
2023/12/22 05:05:05;;;;;;;0.70;0.70;;;;;;;7.20;100.00;97505.84;4133468;28;20253;-49
2023/12/22 05:07:07;;;;;;;1.35;1.17;;;;;;;7.23;100.00;97512.69;4136896;28;20206;-50
2023/12/22 05:09:09;;;;;;;1.27;1.23;;;;;;;7.26;100.00;97501.28;4145246;28;20702;-49
2023/12/22 05:11:11;;;;;;;1.40;1.23;;;;;;;7.27;100.00;97519.22;4140959;28;20617;-50
2023/12/22 05:13:12;;;;;;;2.22;2.08;;;;;;;7.28;100.00;97504.59;4137404;28;20543;-50
2023/12/22 05:15:14;;;;;;;0.75;0.75;;;;;;;7.37;100.00;97513.94;4145679;28;20421;-50
2023/12/22 05:17:16;;;;;;;1.65;1.00;;;;;;;7.33;100.00;97512.78;4130086;28;20221;-50
2023/12/22 05:19:18;;;;;;;1.35;1.25;;;;;;;7.37;100.00;97513.94;4137242;28;20232;-50
2023/12/22 05:21:19;;;;;;;1.65;1.55;;;;;;;7.38;100.00;97504.69;4123659;28;20219;-49
2023/12/22 05:23:25;;;;;;;1.65;1.33;;;;;;;7.40;100.00;97507.97;4138500;28;20214;-49
2023/12/22 05:25:27;;;;;;;1.40;1.30;;;;;;;7.39;100.00;97511.78;4147604;28;20257;-51
2023/12/22 05:27:28;;;;;;;1.98;1.85;;;;;;;7.42;100.00;97516.72;4146281;28;20605;-50
2023/12/22 05:29:30;;;;;;;1.98;1.02;;;;;;;7.42;100.00;97516.72;4152391;28;20213;-51
2023/12/22 05:31:32;;;;;;;0.82;0.80;;;;;;;7.40;100.00;97513.41;4135208;28;20213;-50
2023/12/22 05:33:34;;;;;;;3.42;2.38;;;;;;;7.42;100.00;97514.81;4138231;28;20224;-51
2023/12/22 05:35:36;;;;;;;3.45;2.13;;;;;;;7.43;100.00;97526.53;4137899;28;20638;-51
2023/12/22 05:37:41;;;;;;;1.65;1.50;;;;;;;7.41;100.00;97531.41;4139218;28;20229;-50
2023/12/22 05:39:45;;;;;;;2.00;1.90;;;;;;;7.42;100.00;97522.16;4135697;28;20236;-50
2023/12/22 05:41:46;;;;;;;1.90;1.33;;;;;;;7.44;100.00;97517.28;4141328;28;20214;-51
2023/12/22 05:43:48;;;;;;;1.80;1.23;;;;;;;7.41;100.00;97509.63;4137872;28;20210;-51
2023/12/22 05:45:50;;;;;;;3.75;1.33;;;;;;;7.34;100.00;97517.97;4139842;28;20245;-49
2023/12/22 05:47:51;;;;;;;1.80;1.70;;;;;;;7.41;100.00;97513.16;4135412;28;21070;-51
2023/12/22 05:49:53;;;;;;;0.80;0.80;;;;;;;7.42;100.00;97505.84;4139837;28;20229;-50
2023/12/22 05:51:56;;;;;;;4.43;2.83;;;;;;;7.38;100.00;97515.56;4123262;28;20734;-51
2023/12/22 05:53:58;;;;;;;0.80;0.80;;;;;;;7.34;100.00;97520.69;4138811;28;20259;-50
2023/12/22 05:56:00;;;;;;;1.13;1.02;;;;;;;7.32;100.00;97530.19;4137048;28;20683;-52
2023/12/22 05:58:01;;;;;;;1.15;1.00;;;;;;;7.32;100.00;97532.91;4136890;28;20785;-50
2023/12/22 06:00:07;;;;;;;1.52;1.52;;;;;;;7.23;100.00;97539.88;4137344;28;20715;-50
2023/12/22 06:02:09;;;;;;;1.20;1.20;;;;;;;7.28;100.00;97535.31;4153499;28;20213;-50
2023/12/22 06:04:10;;;;;;;2.00;1.90;;;;;;;7.29;100.00;97538.88;4139232;28;20209;-50
2023/12/22 06:06:12;;;;;;;1.65;1.52;;;;;;;7.30;100.00;97535.06;4139296;28;20206;-51
2023/12/22 06:08:14;;;;;;;1.45;1.45;;;;;;;7.32;100.00;97543.78;4140429;28;20867;-52
2023/12/22 06:10:16;;;;;;;0.98;0.98;;;;;;;7.29;100.00;97553.28;4140248;28;20578;-51
2023/12/22 06:12:18;;;;;;;8.07;2.35;;;;;;;7.26;100.00;97556.53;4136423;28;20221;-52
2023/12/22 06:14:19;;;;;;;0.93;0.93;;;;;;;7.24;100.00;97568.72;4139283;28;20209;-52
2023/12/22 06:16:22;;;;;;;1.52;1.42;;;;;;;7.22;100.00;97562.72;4135703;28;20213;-57
2023/12/22 06:18:23;;;;;;;9.50;1.25;;;;;;;7.25;100.00;97544.00;4137726;28;20225;-51
2023/12/22 06:20:26;;;;;;;1.10;1.10;;;;;;;7.28;100.00;97559.00;4135289;28;20317;-51
2023/12/22 06:22:27;;;;;;;0.93;0.93;;;;;;;7.24;100.00;97575.00;4137188;28;20225;-49
2023/12/22 06:24:29;;;;;;;1.08;1.08;;;;;;;7.27;100.00;97579.09;4138456;28;20218;-50
2023/12/22 06:26:31;;;;;;;1.15;1.10;;;;;;;7.21;100.00;97570.06;4134977;28;20218;-50
2023/12/22 06:28:36;;;;;;;4.65;1.63;;;;;;;7.24;100.00;97580.44;4137455;28;20292;-49
2023/12/22 06:30:37;;;;;;;1.60;1.50;;;;;;;7.22;100.00;97587.22;4135134;28;20713;-49
2023/12/22 06:32:39;;;;;;;1.10;1.10;;;;;;;7.22;100.00;97571.69;4142678;28;20217;-51
2023/12/22 06:34:41;;;;;;;0.70;0.70;;;;;;;7.18;100.00;97586.06;4134667;28;20217;-50
2023/12/22 06:36:43;;;;;;;0.90;0.90;;;;;;;7.13;100.00;97580.53;4138469;28;20205;-50
2023/12/22 06:38:45;;;;;;;9.80;0.93;;;;;;;7.17;100.00;97593.38;4136047;28;20225;-49
2023/12/22 06:40:47;;;;;;;0.63;0.63;;;;;;;7.16;100.00;97588.22;4138554;28;20213;-50
2023/12/22 06:42:48;;;;;;;1.20;1.15;;;;;;;7.15;100.00;97598.25;4135854;28;20241;-50
2023/12/22 06:44:50;;;;;;;5.70;0.95;;;;;;;7.14;100.00;97590.34;4136903;28;20214;-49
2023/12/22 06:46:52;;;;;;;0.90;0.90;;;;;;;7.10;100.00;97595.47;4142700;28;20221;-50
2023/12/22 06:48:55;;;;;;;2.85;0.80;;;;;;;7.05;100.00;97602.72;4138754;28;20693;-50
2023/12/22 06:50:58;;;;;;;1.45;1.08;;;;;;;7.10;100.00;97610.97;4141898;28;20699;-51
2023/12/22 06:52:59;;;;;;;1.20;1.20;;;;;;;7.10;100.00;97602.81;4143620;28;20685;-50
2023/12/22 06:55:11;;;;;;;0.70;0.70;;;;;;;7.09;100.00;97598.44;4139821;28;20208;-52
2023/12/22 06:57:13;;;;;;;1.23;0.75;;;;;;;7.11;100.00;97601.72;4128848;28;20316;-50
2023/12/22 06:59:17;;;;;;;1.83;1.73;;;;;;;7.11;100.00;97615.34;4137727;28;20312;-52
2023/12/22 07:01:20;;;;;;;2.90;0.75;;;;;;;7.10;100.00;97605.53;4138552;28;20789;-51
2023/12/22 07:03:22;;;;;;;0.88;0.88;;;;;;;7.08;100.00;97594.88;4146124;28;20654;-51
2023/12/22 07:05:33;;;;;;;0.88;0.88;;;;;;;7.06;100.00;97599.78;4139473;28;20214;-53
2023/12/22 07:07:36;;;;;;;2.00;1.00;;;;;;;6.99;100.00;97604.56;4137153;28;20210;-52
2023/12/22 07:09:39;;;;;;;1.52;1.10;;;;;;;6.97;100.00;97605.88;4142381;28;20285;-51
2023/12/22 07:11:50;;;;;;;1.10;1.10;;;;;;;7.01;100.00;97607.00;4138138;28;20216;-53
2023/12/22 07:13:51;;;;;;;0.98;0.98;;;;;;;7.01;100.00;97615.16;4119564;28;20576;-50
2023/12/22 07:15:53;;;;;;;2.75;0.98;;;;;;;6.98;100.00;97597.47;4137086;28;20244;-51
2023/12/22 07:17:56;;;;;;;1.02;1.02;;;;;;;6.95;100.00;97586.28;4136509;28;20336;-51
2023/12/22 07:19:57;;;;;;;1.25;1.25;;;;;;;6.96;100.00;97604.25;4151714;28;20229;-52
2023/12/22 07:22:02;;;;;;;1.08;1.08;;;;;;;6.94;100.00;97607.19;4136352;28;20686;-52
2023/12/22 07:24:04;;;;;;;1.05;1.05;;;;;;;6.93;100.00;97607.44;4143224;28;20209;-51
2023/12/22 07:26:06;;;;;;;0.88;0.88;;;;;;;6.96;100.00;97609.69;4134468;28;20687;-51
2023/12/22 07:28:07;;;;;;;0.82;0.82;;;;;;;6.97;100.00;97616.75;4134632;28;20288;-50
2023/12/22 07:30:11;;;;;;;0.90;0.90;;;;;;;6.97;100.00;97603.16;4119818;28;20210;-51
2023/12/22 07:32:13;;;;;;;0.80;0.80;;;;;;;7.02;100.00;97605.97;4136496;28;20235;-52
2023/12/22 07:34:17;;;;;;;1.00;1.00;;;;;;;7.02;100.00;97619.56;4143041;28;20210;-52
2023/12/22 07:36:19;;;;;;;1.20;1.10;;;;;;;7.05;100.00;97619.03;4136153;28;20605;-52
2023/12/22 07:38:23;;;;;;;1.20;1.20;;;;;;;7.06;100.00;97623.41;4134191;28;20316;-55
2023/12/22 07:40:25;;;;;;;11.90;0.98;;;;;;;7.08;100.00;97634.88;4126445;28;20264;-54
2023/12/22 07:42:27;;;;;;;1.33;1.00;;;;;;;7.09;100.00;97647.41;4143104;28;20686;-52
2023/12/22 07:44:29;;;;;;;1.52;1.20;;;;;;;7.12;100.00;97646.91;4142014;28;20253;-53
2023/12/22 07:46:33;;;;;;;3.33;2.17;;;;;;;7.15;100.00;97640.97;4135145;28;20633;-54
2023/12/22 07:48:35;;;;;;;1.75;1.63;;;;;;;7.21;100.00;97639.97;4134938;28;20230;-53
2023/12/22 07:50:37;;;;;;;9.20;2.00;;;;;;;7.16;100.00;97665.19;4137061;28;20209;-51
2023/12/22 07:52:39;;;;;;;1.67;1.58;;;;;;;7.16;100.00;97658.94;4137311;28;20660;-53
2023/12/22 07:54:42;;;;;;;1.92;1.80;;;;;;;7.19;100.00;97655.69;4136654;28;20223;-52
2023/12/22 07:56:44;;;;;;;1.85;1.75;;;;;;;7.24;100.00;97667.50;4137493;28;20548;-51
2023/12/22 07:58:46;;;;;;;5.32;1.75;;;;;;;7.26;100.00;97659.06;4134734;28;20230;-51
2023/12/22 08:00:48;;;;;;;1.65;1.52;;;;;;;7.26;100.00;97653.63;4138370;28;20218;-51
2023/12/22 08:02:50;;;;;;;1.40;1.08;;;;;;;7.27;100.00;97672.44;4132991;28;20217;-52
2023/12/22 08:04:51;;;;;;;9.68;2.63;;;;;;;7.26;100.00;97659.91;4134498;28;20560;-53
2023/12/22 08:06:53;;;;;;;2.53;1.90;;;;;;;7.29;100.00;97664.03;4131375;28;20825;-51
2023/12/22 08:08:55;;;;;;;7.88;1.77;;;;;;;7.33;100.00;97671.44;4134476;28;20340;-51
2023/12/22 08:10:57;;;;;;;1.25;1.15;;;;;;;7.33;100.00;97665.16;4135525;28;20197;-54
2023/12/22 08:12:59;;;;;;;2.20;2.10;;;;;;;7.35;100.00;97657.59;4136628;28;20781;-52
2023/12/22 08:15:01;;;;;;;4.70;1.77;;;;;;;7.35;100.00;97646.69;4142896;28;20268;-53
2023/12/22 08:17:03;;;;;;;7.47;1.20;;;;;;;7.32;100.00;97660.78;4136544;28;20249;-54
2023/12/22 08:19:05;;;;;;;6.78;3.38;;;;;;;7.38;100.00;97649.75;4138986;28;20301;-51
2023/12/22 08:21:07;;;;;;;1.65;1.52;;;;;;;7.31;100.00;97651.00;4118110;28;20237;-52
2023/12/22 08:23:25;;;;;;;3.70;1.85;;;;;;;7.43;100.00;97659.88;4137658;28;20671;-52
2023/12/22 08:25:32;;;;;;;1.70;1.60;;;;;;;7.49;100.00;97658.88;4120438;28;20206;-54
2023/12/22 08:27:34;;;;;;;1.30;1.20;;;;;;;7.50;100.00;97646.91;4142997;28;20296;-51
2023/12/22 08:29:36;;;;;;;3.65;1.98;;;;;;;7.50;100.00;97645.00;4135474;28;20259;-50
2023/12/22 08:31:38;;;;;;;1.65;1.42;;;;;;;7.54;100.00;97651.59;4127420;28;20210;-50
2023/12/22 08:33:41;;;;;;;8.88;2.30;;;;;;;7.53;100.00;97649.09;4128132;28;20320;-51
2023/12/22 08:35:43;;;;;;;2.78;2.05;;;;;;;7.55;100.00;97655.16;4138023;28;20264;-50
2023/12/22 08:37:45;;;;;;;1.52;1.42;;;;;;;7.56;100.00;97659.50;4138304;28;20229;-51
2023/12/22 08:39:47;;;;;;;2.85;2.65;;;;;;;7.53;100.00;97665.44;4138925;28;20209;-51
2023/12/22 08:41:49;;;;;;;5.35;1.17;;;;;;;7.58;100.00;97665.50;4135372;28;20710;-50
2023/12/22 08:43:51;;;;;;;9.95;1.60;;;;;;;7.58;100.00;97663.63;4137526;28;20685;-50
2023/12/22 08:45:53;;;;;;;6.05;1.55;;;;;;;7.56;100.00;97656.78;4133179;28;20595;-50
2023/12/22 08:47:55;;;;;;;4.78;1.20;;;;;;;7.57;100.00;97669.31;4135099;28;20268;-51
2023/12/22 08:49:57;;;;;;;2.65;2.53;;;;;;;7.59;100.00;97667.16;4138702;28;20228;-57
2023/12/22 08:51:59;;;;;;;2.58;2.38;;;;;;;7.62;100.00;97656.59;4139030;28;20209;-50
2023/12/22 08:54:01;;;;;;;1.83;1.42;;;;;;;7.69;100.00;97659.13;4135679;28;20860;-50
2023/12/22 08:56:03;;;;;;;2.63;2.05;;;;;;;7.71;100.00;97646.09;4139695;28;20332;-52
2023/12/22 08:58:05;;;;;;;2.58;1.63;;;;;;;7.71;100.00;97651.53;4138036;28;20385;-53
2023/12/22 09:00:07;;;;;;;4.75;2.47;;;;;;;7.76;100.00;97632.53;4139034;28;20213;-52
2023/12/22 09:02:09;;;;;;;2.55;2.35;;;;;;;7.71;100.00;97651.53;4134639;28;20257;-52
2023/12/22 09:04:14;;;;;;;22.33;2.97;;;;;;;7.78;100.00;97657.63;4127575;28;20608;-52
2023/12/22 09:06:20;;;;;;;1.65;1.55;;;;;;;7.76;100.00;97649.69;4142144;28;20213;-53
2023/12/22 09:08:22;;;;;;;1.92;1.30;;;;;;;7.81;100.00;97668.00;4133693;28;20247;-55
2023/12/22 09:10:25;;;;;;;15.35;2.78;;;;;;;7.85;100.00;97663.69;4150888;28;20244;-53
2023/12/22 09:12:27;;;;;;;1.67;1.30;;;;;;;7.85;100.00;97669.13;4136330;28;20245;-52
2023/12/22 09:14:29;;;;;;;5.25;1.80;;;;;;;7.84;100.00;97664.78;4136028;28;20271;-52
2023/12/22 09:16:34;;;;;;;3.85;1.88;;;;;;;7.87;100.00;97648.75;4137053;28;20216;-54
2023/12/22 09:18:36;;;;;;;3.30;2.42;;;;;;;7.88;100.00;97652.31;4134745;28;20237;-50
2023/12/22 09:20:38;;;;;;;5.78;3.53;;;;;;;7.84;100.00;97656.59;4137384;28;20276;-50
2023/12/22 09:22:39;;;;;;;5.72;2.13;;;;;;;7.87;100.00;97651.47;4134223;28;20247;-50
2023/12/22 09:24:41;;;;;;;10.32;3.58;;;;;;;7.87;100.00;97662.38;4137287;28;20205;-51
2023/12/22 09:26:43;;;;;;;5.07;2.20;;;;;;;7.86;100.00;97659.88;4116127;28;20346;-52
2023/12/22 09:28:45;;;;;;;8.85;3.20;;;;;;;7.83;100.00;97671.31;4138055;28;20316;-51
2023/12/22 09:30:47;;;;;;;4.75;1.92;;;;;;;7.90;100.00;97680.09;4134026;28;20812;-51
2023/12/22 09:32:49;;;;;;;4.82;2.83;;;;;;;7.83;100.00;97679.47;4141604;28;20220;-51
2023/12/22 09:34:51;;;;;;;7.43;2.28;;;;;;;7.83;100.00;97679.47;4140859;28;20288;-51
2023/12/22 09:36:53;;;;;;;7.00;2.25;;;;;;;7.86;100.00;97681.69;4140869;28;20225;-50